sensor_id;sensor_type;location;lat;lon;timestamp;temperature;humidity
15916;DHT22;8057;47.830;-3.870;2022-08-19T00:00:37;19.10;99.90
15916;DHT22;8057;47.830;-3.870;2022-08-19T00:05:50;19.10;99.90
15916;DHT22;8057;47.830;-3.870;2022-08-19T00:15:59;19.20;99.90
15916;DHT22;8057;47.830;-3.870;2022-08-19T00:21:01;19.20;99.90
15916;DHT22;8057;47.830;-3.870;2022-08-19T00:26:15;19.20;99.90
15916;DHT22;8057;47.830;-3.870;2022-08-19T00:47:15;19.20;99.90
15916;DHT22;8057;47.830;-3.870;2022-08-19T00:52:02;19.20;99.90
15916;DHT22;8057;47.830;-3.870;2022-08-19T00:56:31;19.20;99.90
15916;DHT22;8057;47.830;-3.870;2022-08-19T01:01:18;19.20;99.90
15916;DHT22;8057;47.830;-3.870;2022-08-19T01:06:15;19.20;99.90
15916;DHT22;8057;47.830;-3.870;2022-08-19T01:10:33;19.20;99.90
15916;DHT22;8057;47.830;-3.870;2022-08-19T01:15:11;19.20;99.90
15916;DHT22;8057;47.830;-3.870;2022-08-19T01:19:37;19.20;99.90
15916;DHT22;8057;47.830;-3.870;2022-08-19T01:24:35;19.20;99.90
15916;DHT22;8057;47.830;-3.870;2022-08-19T01:29:10;19.20;99.90
15916;DHT22;8057;47.830;-3.870;2022-08-19T01:34:11;19.10;99.90
15916;DHT22;8057;47.830;-3.870;2022-08-19T01:38:57;19.10;99.90
15916;DHT22;8057;47.830;-3.870;2022-08-19T01:59:23;19.10;99.90
15916;DHT22;8057;47.830;-3.870;2022-08-19T02:03:41;19.10;99.90
15916;DHT22;8057;47.830;-3.870;2022-08-19T02:08:33;19.10;99.90
15916;DHT22;8057;47.830;-3.870;2022-08-19T02:13:18;19.10;99.90
15916;DHT22;8057;47.830;-3.870;2022-08-19T02:27:59;19.10;99.90
15916;DHT22;8057;47.830;-3.870;2022-08-19T02:32:29;19.10;99.90
15916;DHT22;8057;47.830;-3.870;2022-08-19T02:36:56;19.10;99.90
15916;DHT22;8057;47.830;-3.870;2022-08-19T02:41:16;19.10;99.90
15916;DHT22;8057;47.830;-3.870;2022-08-19T02:46:10;19.10;99.90
15916;DHT22;8057;47.830;-3.870;2022-08-19T02:50:33;19.10;99.90
15916;DHT22;8057;47.830;-3.870;2022-08-19T02:55:19;19.10;99.90
15916;DHT22;8057;47.830;-3.870;2022-08-19T02:59:54;19.10;99.90
15916;DHT22;8057;47.830;-3.870;2022-08-19T03:14:40;19.10;99.90
15916;DHT22;8057;47.830;-3.870;2022-08-19T03:19:06;19.10;99.90
15916;DHT22;8057;47.830;-3.870;2022-08-19T03:29:43;19.10;99.90
15916;DHT22;8057;47.830;-3.870;2022-08-19T03:34:42;19.10;99.90
15916;DHT22;8057;47.830;-3.870;2022-08-19T03:38:59;19.00;99.90
15916;DHT22;8057;47.830;-3.870;2022-08-19T03:43:23;19.00;99.90
15916;DHT22;8057;47.830;-3.870;2022-08-19T03:47:54;19.00;99.90
15916;DHT22;8057;47.830;-3.870;2022-08-19T03:53:16;19.00;99.90
15916;DHT22;8057;47.830;-3.870;2022-08-19T03:58:17;19.10;99.90
15916;DHT22;8057;47.830;-3.870;2022-08-19T04:02:29;19.10;99.90
15916;DHT22;8057;47.830;-3.870;2022-08-19T04:12:24;19.00;99.90
15916;DHT22;8057;47.830;-3.870;2022-08-19T04:16:36;19.00;99.90
15916;DHT22;8057;47.830;-3.870;2022-08-19T04:20:56;19.10;99.90
15916;DHT22;8057;47.830;-3.870;2022-08-19T04:25:08;19.10;99.90
15916;DHT22;8057;47.830;-3.870;2022-08-19T04:34:37;19.10;99.90
15916;DHT22;8057;47.830;-3.870;2022-08-19T04:39:26;19.10;99.90
15916;DHT22;8057;47.830;-3.870;2022-08-19T04:44:16;19.10;99.90
15916;DHT22;8057;47.830;-3.870;2022-08-19T04:48:52;19.00;99.90
15916;DHT22;8057;47.830;-3.870;2022-08-19T04:58:11;18.90;99.90
15916;DHT22;8057;47.830;-3.870;2022-08-19T05:02:28;18.90;99.90
15916;DHT22;8057;47.830;-3.870;2022-08-19T05:07:31;19.00;99.90
15916;DHT22;8057;47.830;-3.870;2022-08-19T05:11:59;19.00;99.90
15916;DHT22;8057;47.830;-3.870;2022-08-19T05:17:02;18.90;99.90
15916;DHT22;8057;47.830;-3.870;2022-08-19T05:21:39;18.90;99.90
15916;DHT22;8057;47.830;-3.870;2022-08-19T05:26:24;18.90;99.90
15916;DHT22;8057;47.830;-3.870;2022-08-19T05:31:21;18.90;99.90
15916;DHT22;8057;47.830;-3.870;2022-08-19T05:35:36;18.90;99.90
15916;DHT22;8057;47.830;-3.870;2022-08-19T05:40:05;19.00;99.90
15916;DHT22;8057;47.830;-3.870;2022-08-19T05:44:30;19.00;99.90
15916;DHT22;8057;47.830;-3.870;2022-08-19T05:48:41;19.00;99.90
15916;DHT22;8057;47.830;-3.870;2022-08-19T05:52:59;19.00;99.90
15916;DHT22;8057;47.830;-3.870;2022-08-19T05:57:10;19.00;99.90
15916;DHT22;8057;47.830;-3.870;2022-08-19T06:01:33;19.00;99.90
15916;DHT22;8057;47.830;-3.870;2022-08-19T06:05:57;19.00;99.90
15916;DHT22;8057;47.830;-3.870;2022-08-19T06:10:31;19.00;99.90
15916;DHT22;8057;47.830;-3.870;2022-08-19T06:14:59;19.00;99.90
15916;DHT22;8057;47.830;-3.870;2022-08-19T06:19:16;19.00;99.90
15916;DHT22;8057;47.830;-3.870;2022-08-19T06:23:37;19.00;99.90
15916;DHT22;8057;47.830;-3.870;2022-08-19T06:27:50;19.10;99.90
15916;DHT22;8057;47.830;-3.870;2022-08-19T06:32:20;19.10;99.90
15916;DHT22;8057;47.830;-3.870;2022-08-19T06:36:53;19.10;99.90
15916;DHT22;8057;47.830;-3.870;2022-08-19T06:41:04;19.10;99.90
15916;DHT22;8057;47.830;-3.870;2022-08-19T06:45:17;19.10;99.90
15916;DHT22;8057;47.830;-3.870;2022-08-19T06:49:46;19.10;99.90
15916;DHT22;8057;47.830;-3.870;2022-08-19T06:54:14;19.10;99.90
15916;DHT22;8057;47.830;-3.870;2022-08-19T06:58:26;19.20;99.90
15916;DHT22;8057;47.830;-3.870;2022-08-19T07:02:56;19.20;99.90
15916;DHT22;8057;47.830;-3.870;2022-08-19T07:07:50;19.20;99.90
15916;DHT22;8057;47.830;-3.870;2022-08-19T07:13:12;19.30;99.90
15916;DHT22;8057;47.830;-3.870;2022-08-19T08:24:18;20.00;99.90
15916;DHT22;8057;47.830;-3.870;2022-08-19T08:42:36;20.10;99.90
15916;DHT22;8057;47.830;-3.870;2022-08-19T08:53:10;20.10;99.90
15916;DHT22;8057;47.830;-3.870;2022-08-19T08:57:51;20.10;99.90
15916;DHT22;8057;47.830;-3.870;2022-08-19T09:02:34;20.10;99.90
15916;DHT22;8057;47.830;-3.870;2022-08-19T09:12:32;19.90;99.90
15916;DHT22;8057;47.830;-3.870;2022-08-19T09:50:36;19.90;99.90
15916;DHT22;8057;47.830;-3.870;2022-08-19T09:55:00;20.00;99.90
15916;DHT22;8057;47.830;-3.870;2022-08-19T11:00:11;19.80;99.90
15916;DHT22;8057;47.830;-3.870;2022-08-19T11:04:22;19.80;99.90
15916;DHT22;8057;47.830;-3.870;2022-08-19T11:08:36;19.80;99.90
15916;DHT22;8057;47.830;-3.870;2022-08-19T11:12:46;19.80;99.90
15916;DHT22;8057;47.830;-3.870;2022-08-19T11:16:58;19.80;99.90
15916;DHT22;8057;47.830;-3.870;2022-08-19T11:21:13;19.80;99.90
15916;DHT22;8057;47.830;-3.870;2022-08-19T11:25:24;19.80;99.90
15916;DHT22;8057;47.830;-3.870;2022-08-19T11:29:33;19.70;99.90
15916;DHT22;8057;47.830;-3.870;2022-08-19T11:33:45;19.70;99.90
15916;DHT22;8057;47.830;-3.870;2022-08-19T11:37:55;19.60;99.90
15916;DHT22;8057;47.830;-3.870;2022-08-19T11:42:06;19.60;99.90
15916;DHT22;8057;47.830;-3.870;2022-08-19T11:46:38;19.60;99.90
15916;DHT22;8057;47.830;-3.870;2022-08-19T11:50:49;19.60;99.90
15916;DHT22;8057;47.830;-3.870;2022-08-19T11:54:58;19.60;99.90
15916;DHT22;8057;47.830;-3.870;2022-08-19T11:59:08;19.60;99.90
15916;DHT22;8057;47.830;-3.870;2022-08-19T12:03:21;19.60;99.90
15916;DHT22;8057;47.830;-3.870;2022-08-19T12:07:34;19.80;99.90
15916;DHT22;8057;47.830;-3.870;2022-08-19T12:11:43;19.80;99.90
15916;DHT22;8057;47.830;-3.870;2022-08-19T12:15:53;20.10;99.90
15916;DHT22;8057;47.830;-3.870;2022-08-19T12:20:03;20.20;99.90
15916;DHT22;8057;47.830;-3.870;2022-08-19T12:24:14;20.20;99.90
15916;DHT22;8057;47.830;-3.870;2022-08-19T12:28:32;20.20;99.90
15916;DHT22;8057;47.830;-3.870;2022-08-19T12:32:42;20.30;99.90
15916;DHT22;8057;47.830;-3.870;2022-08-19T12:36:51;20.40;99.90
15916;DHT22;8057;47.830;-3.870;2022-08-19T12:41:03;20.40;99.90
15916;DHT22;8057;47.830;-3.870;2022-08-19T12:45:14;20.50;99.90
15916;DHT22;8057;47.830;-3.870;2022-08-19T12:49:35;20.70;99.90
15916;DHT22;8057;47.830;-3.870;2022-08-19T12:54:02;21.00;99.90
15916;DHT22;8057;47.830;-3.870;2022-08-19T12:58:14;21.10;99.90
15916;DHT22;8057;47.830;-3.870;2022-08-19T13:02:49;21.20;99.90
15916;DHT22;8057;47.830;-3.870;2022-08-19T13:50:45;22.60;99.90
15916;DHT22;8057;47.830;-3.870;2022-08-19T14:04:43;22.70;99.90
15916;DHT22;8057;47.830;-3.870;2022-08-19T15:20:55;21.70;99.90
15916;DHT22;8057;47.830;-3.870;2022-08-19T15:41:29;21.90;99.90
15916;DHT22;8057;47.830;-3.870;2022-08-19T15:45:45;22.10;99.90
15916;DHT22;8057;47.830;-3.870;2022-08-19T15:50:24;22.10;99.90
15916;DHT22;8057;47.830;-3.870;2022-08-19T15:55:27;22.00;99.90
15916;DHT22;8057;47.830;-3.870;2022-08-19T16:00:22;22.10;99.90
15916;DHT22;8057;47.830;-3.870;2022-08-19T16:05:25;22.20;99.90
15916;DHT22;8057;47.830;-3.870;2022-08-19T16:20:07;22.40;99.90
15916;DHT22;8057;47.830;-3.870;2022-08-19T16:24:37;22.40;99.90
15916;DHT22;8057;47.830;-3.870;2022-08-19T16:28:54;22.50;99.90
15916;DHT22;8057;47.830;-3.870;2022-08-19T16:33:08;22.60;99.90
15916;DHT22;8057;47.830;-3.870;2022-08-19T16:37:32;22.50;99.90
15916;DHT22;8057;47.830;-3.870;2022-08-19T16:41:45;22.40;99.90
15916;DHT22;8057;47.830;-3.870;2022-08-19T16:45:55;22.40;99.90
15916;DHT22;8057;47.830;-3.870;2022-08-19T16:50:05;22.40;99.90
15916;DHT22;8057;47.830;-3.870;2022-08-19T17:17:28;22.10;99.90
15916;DHT22;8057;47.830;-3.870;2022-08-19T17:21:55;21.80;99.90
15916;DHT22;8057;47.830;-3.870;2022-08-19T17:31:46;21.50;99.90
15916;DHT22;8057;47.830;-3.870;2022-08-19T17:36:21;21.40;99.90
15916;DHT22;8057;47.830;-3.870;2022-08-19T17:40:35;21.30;99.90
15916;DHT22;8057;47.830;-3.870;2022-08-19T17:45:02;21.30;99.90
15916;DHT22;8057;47.830;-3.870;2022-08-19T17:49:15;21.20;99.90
15916;DHT22;8057;47.830;-3.870;2022-08-19T17:53:28;21.20;99.90
15916;DHT22;8057;47.830;-3.870;2022-08-19T17:57:38;21.10;99.90
15916;DHT22;8057;47.830;-3.870;2022-08-19T19:37:33;18.90;99.90
15916;DHT22;8057;47.830;-3.870;2022-08-19T19:42:10;18.80;99.90
15916;DHT22;8057;47.830;-3.870;2022-08-19T19:46:54;18.70;99.90
15916;DHT22;8057;47.830;-3.870;2022-08-19T19:57:02;18.50;99.90
15916;DHT22;8057;47.830;-3.870;2022-08-19T20:11:56;18.30;99.90
15916;DHT22;8057;47.830;-3.870;2022-08-19T20:21:43;18.10;99.90
15916;DHT22;8057;47.830;-3.870;2022-08-19T20:25:58;17.90;99.90
15916;DHT22;8057;47.830;-3.870;2022-08-19T20:30:09;17.90;99.90
15916;DHT22;8057;47.830;-3.870;2022-08-19T20:34:47;17.80;99.90
15916;DHT22;8057;47.830;-3.870;2022-08-19T20:39:03;17.70;99.90
15916;DHT22;8057;47.830;-3.870;2022-08-19T20:43:26;17.60;99.90
15916;DHT22;8057;47.830;-3.870;2022-08-19T20:47:35;17.60;99.90
15916;DHT22;8057;47.830;-3.870;2022-08-19T20:51:45;17.40;99.90
15916;DHT22;8057;47.830;-3.870;2022-08-19T20:55:58;17.40;99.90
15916;DHT22;8057;47.830;-3.870;2022-08-19T21:00:08;17.20;99.90
15916;DHT22;8057;47.830;-3.870;2022-08-19T21:04:19;17.20;99.90
15916;DHT22;8057;47.830;-3.870;2022-08-19T21:08:29;17.10;99.90
15916;DHT22;8057;47.830;-3.870;2022-08-19T21:12:39;17.00;99.90
15916;DHT22;8057;47.830;-3.870;2022-08-19T21:16:50;16.90;99.90
15916;DHT22;8057;47.830;-3.870;2022-08-19T21:21:05;16.80;99.90
15916;DHT22;8057;47.830;-3.870;2022-08-19T21:26:05;16.80;99.90
15916;DHT22;8057;47.830;-3.870;2022-08-19T21:30:17;16.80;99.90
15916;DHT22;8057;47.830;-3.870;2022-08-19T21:34:26;16.70;99.90
15916;DHT22;8057;47.830;-3.870;2022-08-19T21:38:36;16.70;99.90
15916;DHT22;8057;47.830;-3.870;2022-08-19T21:42:46;16.60;99.90
15916;DHT22;8057;47.830;-3.870;2022-08-19T21:46:57;16.50;99.90
15916;DHT22;8057;47.830;-3.870;2022-08-19T21:51:06;16.40;99.90
15916;DHT22;8057;47.830;-3.870;2022-08-19T21:55:16;16.30;99.90
15916;DHT22;8057;47.830;-3.870;2022-08-19T21:59:26;16.30;99.90
15916;DHT22;8057;47.830;-3.870;2022-08-19T22:03:38;16.20;99.90
15916;DHT22;8057;47.830;-3.870;2022-08-19T22:07:48;16.10;99.90
15916;DHT22;8057;47.830;-3.870;2022-08-19T22:11:57;16.10;99.90
15916;DHT22;8057;47.830;-3.870;2022-08-19T22:16:08;16.10;99.90
15916;DHT22;8057;47.830;-3.870;2022-08-19T22:20:21;16.00;99.90
15916;DHT22;8057;47.830;-3.870;2022-08-19T22:24:31;16.00;99.90
15916;DHT22;8057;47.830;-3.870;2022-08-19T22:28:41;16.00;99.90
15916;DHT22;8057;47.830;-3.870;2022-08-19T22:32:53;15.90;99.90
15916;DHT22;8057;47.830;-3.870;2022-08-19T22:37:05;15.90;99.90
15916;DHT22;8057;47.830;-3.870;2022-08-19T22:41:16;15.80;99.90
15916;DHT22;8057;47.830;-3.870;2022-08-19T22:45:27;15.80;99.90
15916;DHT22;8057;47.830;-3.870;2022-08-19T22:49:37;15.70;99.90
15916;DHT22;8057;47.830;-3.870;2022-08-19T22:53:48;15.70;99.90
15916;DHT22;8057;47.830;-3.870;2022-08-19T22:57:58;15.70;99.90
15916;DHT22;8057;47.830;-3.870;2022-08-19T23:02:08;15.50;99.90
15916;DHT22;8057;47.830;-3.870;2022-08-19T23:06:18;15.30;99.90
15916;DHT22;8057;47.830;-3.870;2022-08-19T23:10:29;15.40;99.90
15916;DHT22;8057;47.830;-3.870;2022-08-19T23:14:38;15.30;99.90
15916;DHT22;8057;47.830;-3.870;2022-08-19T23:18:48;15.30;99.90
15916;DHT22;8057;47.830;-3.870;2022-08-19T23:23:04;15.30;99.90
15916;DHT22;8057;47.830;-3.870;2022-08-19T23:27:15;15.40;99.90
15916;DHT22;8057;47.830;-3.870;2022-08-19T23:31:50;15.30;99.90
15916;DHT22;8057;47.830;-3.870;2022-08-19T23:36:03;15.30;99.90
15916;DHT22;8057;47.830;-3.870;2022-08-19T23:40:13;15.40;99.90
15916;DHT22;8057;47.830;-3.870;2022-08-19T23:44:25;15.40;99.90
15916;DHT22;8057;47.830;-3.870;2022-08-19T23:48:35;15.30;99.90
15916;DHT22;8057;47.830;-3.870;2022-08-19T23:52:46;15.30;99.90
15916;DHT22;8057;47.830;-3.870;2022-08-19T23:56:56;15.20;99.90
